sensor_id;sensor_type;location;lat;lon;timestamp;pressure;altitude;pressure_sealevel;temperature;humidity
56392;BME280;76123;53.584;9.978;2024-03-02T00:01:16;100498.47;;;8.61;79.60
56392;BME280;76123;53.584;9.978;2024-03-02T00:03:44;100502.00;;;8.61;80.20
56392;BME280;76123;53.584;9.978;2024-03-02T00:06:10;100503.56;;;8.65;80.28
56392;BME280;76123;53.584;9.978;2024-03-02T00:08:37;100504.63;;;8.61;80.01
56392;BME280;76123;53.584;9.978;2024-03-02T00:11:04;100501.91;;;8.63;79.82
56392;BME280;76123;53.584;9.978;2024-03-02T00:13:31;100499.34;;;8.61;79.61
56392;BME280;76123;53.584;9.978;2024-03-02T00:15:59;100501.00;;;8.64;79.54
56392;BME280;76123;53.584;9.978;2024-03-02T00:18:30;100498.47;;;8.61;79.52
56392;BME280;76123;53.584;9.978;2024-03-02T00:20:58;100489.41;;;8.66;79.03
56392;BME280;76123;53.584;9.978;2024-03-02T00:23:28;100488.88;;;8.60;78.53
56392;BME280;76123;53.584;9.978;2024-03-02T00:25:56;100492.22;;;8.63;79.36
56392;BME280;76123;53.584;9.978;2024-03-02T00:28:24;100484.38;;;8.62;79.65
56392;BME280;76123;53.584;9.978;2024-03-02T00:30:55;100480.00;;;8.61;79.68
56392;BME280;76123;53.584;9.978;2024-03-02T00:33:22;100477.38;;;8.61;78.58
56392;BME280;76123;53.584;9.978;2024-03-02T00:35:52;100468.56;;;8.62;78.74
56392;BME280;76123;53.584;9.978;2024-03-02T00:38:19;100474.63;;;8.64;79.21
56392;BME280;76123;53.584;9.978;2024-03-02T00:40:46;100478.19;;;8.63;79.28
56392;BME280;76123;53.584;9.978;2024-03-02T00:46:13;100463.28;;;8.62;78.58
56392;BME280;76123;53.584;9.978;2024-03-02T00:48:48;100469.47;;;8.61;79.56
56392;BME280;76123;53.584;9.978;2024-03-02T00:51:16;100472.25;;;8.58;79.97
56392;BME280;76123;53.584;9.978;2024-03-02T00:53:42;100456.38;;;8.59;80.80
56392;BME280;76123;53.584;9.978;2024-03-02T00:56:10;100459.06;;;8.58;80.72
56392;BME280;76123;53.584;9.978;2024-03-02T00:58:37;100465.00;;;8.63;81.50
56392;BME280;76123;53.584;9.978;2024-03-02T01:01:04;100472.41;;;8.55;81.71
56392;BME280;76123;53.584;9.978;2024-03-02T01:03:32;100464.72;;;8.50;82.17
56392;BME280;76123;53.584;9.978;2024-03-02T01:05:59;100474.50;;;8.48;82.56
56392;BME280;76123;53.584;9.978;2024-03-02T01:08:26;100469.47;;;8.42;82.88
56392;BME280;76123;53.584;9.978;2024-03-02T01:10:53;100475.69;;;8.41;82.78
56392;BME280;76123;53.584;9.978;2024-03-02T01:13:21;100486.31;;;8.39;84.28
56392;BME280;76123;53.584;9.978;2024-03-02T01:15:48;100481.03;;;8.39;85.48
56392;BME280;76123;53.584;9.978;2024-03-02T01:18:14;100485.75;;;8.32;85.55
56392;BME280;76123;53.584;9.978;2024-03-02T01:20:41;100491.00;;;8.32;85.41
56392;BME280;76123;53.584;9.978;2024-03-02T01:23:08;100489.50;;;8.27;85.83
56392;BME280;76123;53.584;9.978;2024-03-02T01:25:35;100484.31;;;8.25;85.98
56392;BME280;76123;53.584;9.978;2024-03-02T01:28:02;100480.94;;;8.22;86.15
56392;BME280;76123;53.584;9.978;2024-03-02T01:30:29;100478.31;;;8.22;86.10
56392;BME280;76123;53.584;9.978;2024-03-02T01:32:56;100486.59;;;8.14;87.63
56392;BME280;76123;53.584;9.978;2024-03-02T01:35:24;100478.00;;;8.10;86.79
56392;BME280;76123;53.584;9.978;2024-03-02T01:37:52;100478.41;;;8.01;87.29
56392;BME280;76123;53.584;9.978;2024-03-02T01:40:18;100472.28;;;8.00;88.14
56392;BME280;76123;53.584;9.978;2024-03-02T01:42:47;100476.59;;;8.02;88.17
56392;BME280;76123;53.584;9.978;2024-03-02T01:45:13;100473.13;;;8.01;88.75
56392;BME280;76123;53.584;9.978;2024-03-02T01:47:40;100473.06;;;8.03;87.86
56392;BME280;76123;53.584;9.978;2024-03-02T01:50:07;100463.66;;;7.97;88.19
56392;BME280;76123;53.584;9.978;2024-03-02T01:52:34;100469.00;;;7.95;89.02
56392;BME280;76123;53.584;9.978;2024-03-02T01:55:01;100481.25;;;7.96;88.92
56392;BME280;76123;53.584;9.978;2024-03-02T01:57:29;100471.69;;;7.94;88.63
56392;BME280;76123;53.584;9.978;2024-03-02T01:59:57;100471.91;;;7.89;88.79
56392;BME280;76123;53.584;9.978;2024-03-02T02:02:24;100462.56;;;7.82;87.78
56392;BME280;76123;53.584;9.978;2024-03-02T02:04:51;100464.38;;;7.81;89.16
56392;BME280;76123;53.584;9.978;2024-03-02T02:07:17;100462.19;;;7.71;87.62
56392;BME280;76123;53.584;9.978;2024-03-02T02:09:44;100455.88;;;7.75;89.99
56392;BME280;76123;53.584;9.978;2024-03-02T02:12:11;100460.22;;;7.76;89.73
56392;BME280;76123;53.584;9.978;2024-03-02T02:14:37;100453.31;;;7.73;89.22
56392;BME280;76123;53.584;9.978;2024-03-02T02:17:07;100454.16;;;7.74;89.36
56392;BME280;76123;53.584;9.978;2024-03-02T02:19:33;100447.22;;;7.73;88.91
56392;BME280;76123;53.584;9.978;2024-03-02T02:22:01;100445.41;;;7.73;89.18
56392;BME280;76123;53.584;9.978;2024-03-02T02:24:28;100449.03;;;7.71;89.81
56392;BME280;76123;53.584;9.978;2024-03-02T02:26:54;100446.41;;;7.71;89.22
56392;BME280;76123;53.584;9.978;2024-03-02T02:29:21;100444.69;;;7.70;89.62
56392;BME280;76123;53.584;9.978;2024-03-02T02:31:47;100443.06;;;7.67;89.28
56392;BME280;76123;53.584;9.978;2024-03-02T02:34:14;100443.56;;;7.75;87.53
56392;BME280;76123;53.584;9.978;2024-03-02T02:36:41;100438.50;;;7.71;88.22
56392;BME280;76123;53.584;9.978;2024-03-02T02:39:12;100439.22;;;7.74;88.99
56392;BME280;76123;53.584;9.978;2024-03-02T02:41:40;100431.59;;;7.68;88.80
56392;BME280;76123;53.584;9.978;2024-03-02T02:44:06;100431.66;;;7.67;88.55
56392;BME280;76123;53.584;9.978;2024-03-02T02:46:33;100429.03;;;7.67;88.55
56392;BME280;76123;53.584;9.978;2024-03-02T02:49:00;100431.59;;;7.68;88.33
56392;BME280;76123;53.584;9.978;2024-03-02T02:51:26;100428.19;;;7.66;88.42
56392;BME280;76123;53.584;9.978;2024-03-02T02:53:53;100425.47;;;7.68;87.70
56392;BME280;76123;53.584;9.978;2024-03-02T02:56:20;100426.69;;;7.60;87.45
56392;BME280;76123;53.584;9.978;2024-03-02T02:58:47;100427.44;;;7.62;88.12
56392;BME280;76123;53.584;9.978;2024-03-02T03:01:15;100427.34;;;7.65;88.24
56392;BME280;76123;53.584;9.978;2024-03-02T03:03:43;100424.81;;;7.62;88.11
56392;BME280;76123;53.584;9.978;2024-03-02T03:06:10;100434.22;;;7.68;88.02
56392;BME280;76123;53.584;9.978;2024-03-02T03:08:36;100429.91;;;7.67;88.35
56392;BME280;76123;53.584;9.978;2024-03-02T03:11:03;100426.47;;;7.65;86.74
56392;BME280;76123;53.584;9.978;2024-03-02T03:13:31;100429.25;;;7.62;87.85
56392;BME280;76123;53.584;9.978;2024-03-02T03:15:58;100422.25;;;7.61;87.39
56392;BME280;76123;53.584;9.978;2024-03-02T03:18:24;100420.28;;;7.66;87.53
56392;BME280;76123;53.584;9.978;2024-03-02T03:20:51;100426.53;;;7.63;86.74
56392;BME280;76123;53.584;9.978;2024-03-02T03:23:17;100421.19;;;7.65;87.23
56392;BME280;76123;53.584;9.978;2024-03-02T03:25:44;100425.84;;;7.60;88.02
56392;BME280;76123;53.584;9.978;2024-03-02T03:28:11;100420.66;;;7.58;88.42
56392;BME280;76123;53.584;9.978;2024-03-02T03:30:39;100424.81;;;7.62;87.02
56392;BME280;76123;53.584;9.978;2024-03-02T03:33:06;100431.16;;;7.58;88.18
56392;BME280;76123;53.584;9.978;2024-03-02T03:35:32;100429.16;;;7.63;88.09
56392;BME280;76123;53.584;9.978;2024-03-02T03:38:00;100424.88;;;7.61;87.85
56392;BME280;76123;53.584;9.978;2024-03-02T03:40:26;100426.81;;;7.57;88.03
56392;BME280;76123;53.584;9.978;2024-03-02T03:42:53;100427.72;;;7.56;87.99
56392;BME280;76123;53.584;9.978;2024-03-02T03:45:21;100423.31;;;7.57;87.87
56392;BME280;76123;53.584;9.978;2024-03-02T03:47:49;100418.06;;;7.57;88.10
56392;BME280;76123;53.584;9.978;2024-03-02T03:50:15;100427.59;;;7.59;87.83
56392;BME280;76123;53.584;9.978;2024-03-02T03:52:42;100425.03;;;7.58;87.52
56392;BME280;76123;53.584;9.978;2024-03-02T03:55:09;100422.47;;;7.56;88.03
56392;BME280;76123;53.584;9.978;2024-03-02T03:57:35;100423.38;;;7.55;87.63
56392;BME280;76123;53.584;9.978;2024-03-02T04:00:03;100418.78;;;7.60;87.14
56392;BME280;76123;53.584;9.978;2024-03-02T04:02:29;100418.84;;;7.59;86.95
56392;BME280;76123;53.584;9.978;2024-03-02T04:04:57;100420.66;;;7.58;87.48
56392;BME280;76123;53.584;9.978;2024-03-02T04:07:24;100414.50;;;7.58;87.11
56392;BME280;76123;53.584;9.978;2024-03-02T04:09:50;100410.03;;;7.60;88.15
56392;BME280;76123;53.584;9.978;2024-03-02T04:12:17;100414.44;;;7.59;87.53
56392;BME280;76123;53.584;9.978;2024-03-02T04:14:43;100417.06;;;7.59;87.27
56392;BME280;76123;53.584;9.978;2024-03-02T04:17:10;100410.13;;;7.58;86.68
56392;BME280;76123;53.584;9.978;2024-03-02T04:19:36;100404.13;;;7.55;86.23
56392;BME280;76123;53.584;9.978;2024-03-02T04:22:04;100409.53;;;7.52;85.32
56392;BME280;76123;53.584;9.978;2024-03-02T04:24:31;100407.03;;;7.48;85.46
56392;BME280;76123;53.584;9.978;2024-03-02T04:26:58;100407.88;;;7.49;85.27
56392;BME280;76123;53.584;9.978;2024-03-02T04:29:24;100407.16;;;7.45;85.73
56392;BME280;76123;53.584;9.978;2024-03-02T04:31:51;100405.53;;;7.43;85.02
56392;BME280;76123;53.584;9.978;2024-03-02T04:34:17;100410.72;;;7.44;85.44
56392;BME280;76123;53.584;9.978;2024-03-02T04:36:44;100406.28;;;7.45;84.73
56392;BME280;76123;53.584;9.978;2024-03-02T04:39:12;100422.09;;;7.45;86.06
56392;BME280;76123;53.584;9.978;2024-03-02T04:41:38;100423.81;;;7.46;85.59
56392;BME280;76123;53.584;9.978;2024-03-02T04:44:05;100430.06;;;7.43;84.92
56392;BME280;76123;53.584;9.978;2024-03-02T04:46:33;100428.41;;;7.41;86.23
56392;BME280;76123;53.584;9.978;2024-03-02T04:48:59;100428.63;;;7.36;85.01
56392;BME280;76123;53.584;9.978;2024-03-02T04:51:26;100423.94;;;7.43;85.63
56392;BME280;76123;53.584;9.978;2024-03-02T04:53:52;100429.34;;;7.40;85.34
56392;BME280;76123;53.584;9.978;2024-03-02T04:56:21;100425.97;;;7.36;85.24
56392;BME280;76123;53.584;9.978;2024-03-02T04:59:05;100424.47;;;7.30;85.06
56392;BME280;76123;53.584;9.978;2024-03-02T05:01:32;100423.44;;;7.35;86.26
56392;BME280;76123;53.584;9.978;2024-03-02T05:03:59;100415.47;;;7.36;85.07
56392;BME280;76123;53.584;9.978;2024-03-02T05:06:25;100413.81;;;7.34;86.01
56392;BME280;76123;53.584;9.978;2024-03-02T05:08:52;100420.84;;;7.33;84.50
56392;BME280;76123;53.584;9.978;2024-03-02T05:11:18;100421.78;;;7.32;85.30
56392;BME280;76123;53.584;9.978;2024-03-02T05:14:04;100413.78;;;7.35;84.60
56392;BME280;76123;53.584;9.978;2024-03-02T05:16:32;100411.97;;;7.36;84.63
56392;BME280;76123;53.584;9.978;2024-03-02T05:18:59;100410.34;;;7.33;84.98
56392;BME280;76123;53.584;9.978;2024-03-02T05:21:26;100417.31;;;7.34;85.89
56392;BME280;76123;53.584;9.978;2024-03-02T05:23:52;100418.22;;;7.33;85.72
56392;BME280;76123;53.584;9.978;2024-03-02T05:26:19;100416.50;;;7.32;85.06
56392;BME280;76123;53.584;9.978;2024-03-02T05:28:45;100417.25;;;7.36;85.75
56392;BME280;76123;53.584;9.978;2024-03-02T05:31:15;100420.72;;;7.36;85.41
56392;BME280;76123;53.584;9.978;2024-03-02T05:33:42;100422.66;;;7.33;84.27
56392;BME280;76123;53.584;9.978;2024-03-02T05:36:08;100424.47;;;7.30;84.00
56392;BME280;76123;53.584;9.978;2024-03-02T05:38:35;100422.66;;;7.33;nan
56392;BME280;76123;53.584;9.978;2024-03-02T05:41:02;100422.66;;;7.33;84.12
56392;BME280;76123;53.584;9.978;2024-03-02T05:43:29;100425.28;;;7.33;84.64
56392;BME280;76123;53.584;9.978;2024-03-02T05:45:55;100421.59;;;7.37;84.17
56392;BME280;76123;53.584;9.978;2024-03-02T05:48:23;100420.50;;;7.41;83.72
56392;BME280;76123;53.584;9.978;2024-03-02T05:50:50;100417.47;;;7.31;84.24
56392;BME280;76123;53.584;9.978;2024-03-02T05:53:16;100417.38;;;7.33;84.95
56392;BME280;76123;53.584;9.978;2024-03-02T05:55:43;100415.81;;;7.28;84.44
56392;BME280;76123;53.584;9.978;2024-03-02T05:58:10;100416.94;;;7.23;84.38
56392;BME280;76123;53.584;9.978;2024-03-02T06:00:48;100428.50;;;7.19;84.98
56392;BME280;76123;53.584;9.978;2024-03-02T06:03:14;100433.75;;;7.19;85.61
56392;BME280;76123;53.584;9.978;2024-03-02T06:05:42;100431.19;;;7.17;85.37
56392;BME280;76123;53.584;9.978;2024-03-02T06:08:09;100427.78;;;7.15;85.15
56392;BME280;76123;53.584;9.978;2024-03-02T06:10:35;100432.13;;;7.16;84.88
56392;BME280;76123;53.584;9.978;2024-03-02T06:13:02;100434.81;;;7.15;84.90
56392;BME280;76123;53.584;9.978;2024-03-02T06:15:29;100430.50;;;7.13;83.34
56392;BME280;76123;53.584;9.978;2024-03-02T06:17:55;100428.72;;;7.14;84.38
56392;BME280;76123;53.584;9.978;2024-03-02T06:20:22;100435.69;;;7.15;85.27
56392;BME280;76123;53.584;9.978;2024-03-02T06:22:50;100444.50;;;7.14;83.58
56392;BME280;76123;53.584;9.978;2024-03-02T06:25:16;100439.22;;;7.14;84.11
56392;BME280;76123;53.584;9.978;2024-03-02T06:27:43;100436.59;;;7.14;84.45
56392;BME280;76123;53.584;9.978;2024-03-02T06:30:11;100436.59;;;7.14;84.99
56392;BME280;76123;53.584;9.978;2024-03-02T06:32:37;100433.06;;;7.15;84.40
56392;BME280;76123;53.584;9.978;2024-03-02T06:35:04;100434.81;;;7.15;83.62
56392;BME280;76123;53.584;9.978;2024-03-02T06:37:33;100427.88;;;7.13;84.04
56392;BME280;76123;53.584;9.978;2024-03-02T06:40:01;100426.91;;;7.15;84.09
56392;BME280;76123;53.584;9.978;2024-03-02T06:42:28;100433.84;;;7.17;84.40
56392;BME280;76123;53.584;9.978;2024-03-02T06:44:58;100438.41;;;7.12;84.41
56392;BME280;76123;53.584;9.978;2024-03-02T06:47:25;100436.72;;;7.11;83.73
56392;BME280;76123;53.584;9.978;2024-03-02T06:49:51;100434.94;;;7.11;84.40
56392;BME280;76123;53.584;9.978;2024-03-02T06:52:18;100436.72;;;7.11;84.51
56392;BME280;76123;53.584;9.978;2024-03-02T06:54:45;100441.84;;;7.14;84.10
56392;BME280;76123;53.584;9.978;2024-03-02T06:57:13;100439.94;;;7.18;84.35
56392;BME280;76123;53.584;9.978;2024-03-02T06:59:41;100438.19;;;7.18;84.88
56392;BME280;76123;53.584;9.978;2024-03-02T07:02:08;100431.59;;;7.28;84.02
56392;BME280;76123;53.584;9.978;2024-03-02T07:04:34;100427.03;;;7.32;83.41
56392;BME280;76123;53.584;9.978;2024-03-02T07:07:01;100430.41;;;7.36;84.24
56392;BME280;76123;53.584;9.978;2024-03-02T07:09:28;100441.72;;;7.38;83.74
56392;BME280;76123;53.584;9.978;2024-03-02T07:11:54;100452.31;;;7.36;83.53
56392;BME280;76123;53.584;9.978;2024-03-02T07:14:22;100457.50;;;7.38;83.43
56392;BME280;76123;53.584;9.978;2024-03-02T07:17:09;100461.63;;;7.43;83.13
56392;BME280;76123;53.584;9.978;2024-03-02T07:19:35;100468.56;;;7.46;82.98
56392;BME280;76123;53.584;9.978;2024-03-02T07:22:06;100469.47;;;7.45;82.22
56392;BME280;76123;53.584;9.978;2024-03-02T07:24:32;100466.63;;;7.50;82.54
56392;BME280;76123;53.584;9.978;2024-03-02T07:26:59;100461.25;;;7.53;81.98
56392;BME280;76123;53.584;9.978;2024-03-02T07:29:28;100468.28;;;7.52;82.02
56392;BME280;76123;53.584;9.978;2024-03-02T07:31:54;100477.75;;;7.56;82.15
56392;BME280;76123;53.584;9.978;2024-03-02T07:34:21;100471.66;;;7.56;81.76
56392;BME280;76123;53.584;9.978;2024-03-02T07:36:47;100483.63;;;7.63;81.67
56392;BME280;76123;53.584;9.978;2024-03-02T07:39:14;100478.13;;;7.68;80.84
56392;BME280;76123;53.584;9.978;2024-03-02T07:41:41;100489.28;;;7.74;80.92
56392;BME280;76123;53.584;9.978;2024-03-02T07:44:09;100485.91;;;7.71;80.78
56392;BME280;76123;53.584;9.978;2024-03-02T07:46:37;100484.06;;;7.73;81.29
56392;BME280;76123;53.584;9.978;2024-03-02T07:49:04;100493.72;;;7.72;81.10
56392;BME280;76123;53.584;9.978;2024-03-02T07:51:31;100486.41;;;7.79;80.92
56392;BME280;76123;53.584;9.978;2024-03-02T07:53:57;100487.28;;;7.79;81.43
56392;BME280;76123;53.584;9.978;2024-03-02T07:56:24;100502.16;;;7.80;81.37
56392;BME280;76123;53.584;9.978;2024-03-02T07:58:51;100498.59;;;7.81;81.35
56392;BME280;76123;53.584;9.978;2024-03-02T08:01:18;100503.94;;;7.80;80.28
56392;BME280;76123;53.584;9.978;2024-03-02T08:03:46;100498.53;;;7.83;81.27
56392;BME280;76123;53.584;9.978;2024-03-02T08:06:13;100510.06;;;7.80;81.03
56392;BME280;76123;53.584;9.978;2024-03-02T08:08:40;100511.94;;;7.77;80.74
56392;BME280;76123;53.584;9.978;2024-03-02T08:11:06;100507.06;;;7.88;81.39
56392;BME280;76123;53.584;9.978;2024-03-02T08:13:33;100507.22;;;7.85;80.72
56392;BME280;76123;53.584;9.978;2024-03-02T08:16:00;100508.13;;;7.84;80.30
56392;BME280;76123;53.584;9.978;2024-03-02T08:18:28;100516.56;;;7.92;81.01
56392;BME280;76123;53.584;9.978;2024-03-02T08:20:56;100515.56;;;7.95;81.50
56392;BME280;76123;53.584;9.978;2024-03-02T08:23:23;100513.78;;;7.95;80.99
56392;BME280;76123;53.584;9.978;2024-03-02T08:25:49;100515.84;;;7.89;80.01
56392;BME280;76123;53.584;9.978;2024-03-02T08:28:16;100516.97;;;7.83;80.12
56392;BME280;76123;53.584;9.978;2024-03-02T08:30:43;100522.72;;;7.91;81.03
56392;BME280;76123;53.584;9.978;2024-03-02T08:33:09;100523.41;;;7.96;81.11
56392;BME280;76123;53.584;9.978;2024-03-02T08:35:36;100522.91;;;8.07;80.45
56392;BME280;76123;53.584;9.978;2024-03-02T08:38:04;100529.03;;;8.08;80.59
56392;BME280;76123;53.584;9.978;2024-03-02T08:40:30;100523.78;;;8.08;79.85
56392;BME280;76123;53.584;9.978;2024-03-02T08:42:57;100519.63;;;8.21;80.02
56392;BME280;76123;53.584;9.978;2024-03-02T08:45:24;100521.22;;;8.25;79.66
56392;BME280;76123;53.584;9.978;2024-03-02T08:47:50;100524.75;;;8.24;79.57
56392;BME280;76123;53.584;9.978;2024-03-02T08:50:17;100522.63;;;8.32;78.98
56392;BME280;76123;53.584;9.978;2024-03-02T08:52:43;100521.97;;;8.48;79.27
56392;BME280;76123;53.584;9.978;2024-03-02T08:55:11;100519.56;;;8.61;78.86
56392;BME280;76123;53.584;9.978;2024-03-02T08:57:38;100524.13;;;8.76;78.32
56392;BME280;76123;53.584;9.978;2024-03-02T09:00:06;100521.91;;;9.03;77.55
56392;BME280;76123;53.584;9.978;2024-03-02T09:02:32;100527.28;;;9.37;77.56
56392;BME280;76123;53.584;9.978;2024-03-02T09:04:59;100522.72;;;9.58;76.45
56392;BME280;76123;53.584;9.978;2024-03-02T09:07:26;100527.03;;;9.77;74.70
56392;BME280;76123;53.584;9.978;2024-03-02T09:09:52;100523.22;;;9.82;73.85
56392;BME280;76123;53.584;9.978;2024-03-02T09:12:20;100524.34;;;10.28;73.34
56392;BME280;76123;53.584;9.978;2024-03-02T09:14:47;100528.47;;;10.65;73.86
56392;BME280;76123;53.584;9.978;2024-03-02T09:17:14;100523.00;;;10.84;70.84
56392;BME280;76123;53.584;9.978;2024-03-02T09:19:40;100530.25;;;10.97;71.36
56392;BME280;76123;53.584;9.978;2024-03-02T09:22:07;100523.91;;;10.83;70.34
56392;BME280;76123;53.584;9.978;2024-03-02T09:24:35;100534.94;;;10.75;70.82
56392;BME280;76123;53.584;9.978;2024-03-02T09:27:01;100533.41;;;10.39;71.42
56392;BME280;76123;53.584;9.978;2024-03-02T09:29:29;100528.38;;;10.35;71.35
56392;BME280;76123;53.584;9.978;2024-03-02T09:31:56;100536.94;;;10.40;71.08
56392;BME280;76123;53.584;9.978;2024-03-02T09:34:22;100539.66;;;10.54;71.61
56392;BME280;76123;53.584;9.978;2024-03-02T09:36:51;100536.75;;;10.59;70.85
56392;BME280;76123;53.584;9.978;2024-03-02T09:39:18;100538.59;;;10.89;71.55
56392;BME280;76123;53.584;9.978;2024-03-02T09:41:45;100529.78;;;11.04;68.74
56392;BME280;76123;53.584;9.978;2024-03-02T09:44:11;100531.28;;;11.24;68.74
56392;BME280;76123;53.584;9.978;2024-03-02T09:46:39;100524.06;;;11.57;68.41
56392;BME280;76123;53.584;9.978;2024-03-02T09:49:09;100518.38;;;12.08;66.86
56392;BME280;76123;53.584;9.978;2024-03-02T09:51:36;100526.31;;;12.22;65.49
56392;BME280;76123;53.584;9.978;2024-03-02T09:54:03;100529.03;;;12.49;65.67
56392;BME280;76123;53.584;9.978;2024-03-02T09:56:31;100534.53;;;12.74;64.53
56392;BME280;76123;53.584;9.978;2024-03-02T09:58:57;100524.69;;;13.03;64.08
56392;BME280;76123;53.584;9.978;2024-03-02T10:01:24;100527.47;;;13.01;63.09
56392;BME280;76123;53.584;9.978;2024-03-02T10:03:53;100526.75;;;13.25;63.33
56392;BME280;76123;53.584;9.978;2024-03-02T10:06:21;100526.44;;;13.30;63.22
56392;BME280;76123;53.584;9.978;2024-03-02T10:08:48;100527.28;;;13.45;62.09
56392;BME280;76123;53.584;9.978;2024-03-02T10:11:26;100526.75;;;13.52;61.84
56392;BME280;76123;53.584;9.978;2024-03-02T10:14:04;100527.78;;;13.50;61.53
56392;BME280;76123;53.584;9.978;2024-03-02T10:16:34;100523.44;;;13.49;61.42
56392;BME280;76123;53.584;9.978;2024-03-02T10:19:15;100525.03;;;13.51;62.11
56392;BME280;76123;53.584;9.978;2024-03-02T10:21:42;100522.59;;;13.48;61.02
56392;BME280;76123;53.584;9.978;2024-03-02T10:24:09;100520.47;;;13.79;60.40
56392;BME280;76123;53.584;9.978;2024-03-02T10:26:35;100518.78;;;13.91;59.58
56392;BME280;76123;53.584;9.978;2024-03-02T10:29:02;100519.41;;;13.82;59.77
56392;BME280;76123;53.584;9.978;2024-03-02T10:31:29;100525.16;;;13.63;60.38
56392;BME280;76123;53.584;9.978;2024-03-02T10:33:57;100524.09;;;13.65;59.57
56392;BME280;76123;53.584;9.978;2024-03-02T10:36:25;100523.66;;;13.71;59.44
56392;BME280;76123;53.584;9.978;2024-03-02T10:38:52;100529.41;;;13.52;60.89
56392;BME280;76123;53.584;9.978;2024-03-02T10:41:23;100533.03;;;13.24;60.94
56392;BME280;76123;53.584;9.978;2024-03-02T10:43:52;100528.75;;;13.21;61.41
56392;BME280;76123;53.584;9.978;2024-03-02T10:46:27;100531.50;;;13.47;60.82
56392;BME280;76123;53.584;9.978;2024-03-02T10:48:54;100529.16;;;13.43;60.46
56392;BME280;76123;53.584;9.978;2024-03-02T10:51:21;100531.31;;;13.37;60.06
56392;BME280;76123;53.584;9.978;2024-03-02T10:53:49;100532.06;;;13.25;60.63
56392;BME280;76123;53.584;9.978;2024-03-02T10:56:21;100533.34;;;13.19;61.44
56392;BME280;76123;53.584;9.978;2024-03-02T10:58:51;100530.47;;;13.23;61.57
56392;BME280;76123;53.584;9.978;2024-03-02T11:01:21;100532.28;;;13.22;60.09
56392;BME280;76123;53.584;9.978;2024-03-02T11:03:48;100537.16;;;13.15;61.51
56392;BME280;76123;53.584;9.978;2024-03-02T11:06:15;100538.22;;;13.26;60.95
56392;BME280;76123;53.584;9.978;2024-03-02T11:08:45;100541.88;;;12.97;61.31
56392;BME280;76123;53.584;9.978;2024-03-02T11:11:18;100541.19;;;13.21;61.10
56392;BME280;76123;53.584;9.978;2024-03-02T11:13:49;100539.22;;;13.25;61.20
56392;BME280;76123;53.584;9.978;2024-03-02T11:16:26;100540.41;;;13.33;61.10
56392;BME280;76123;53.584;9.978;2024-03-02T11:18:53;100541.34;;;13.32;60.22
56392;BME280;76123;53.584;9.978;2024-03-02T11:21:19;100542.69;;;13.52;60.36
56392;BME280;76123;53.584;9.978;2024-03-02T11:23:46;100544.09;;;13.58;59.43
56392;BME280;76123;53.584;9.978;2024-03-02T11:26:21;100544.81;;;13.73;60.09
56392;BME280;76123;53.584;9.978;2024-03-02T11:28:48;100546.25;;;13.38;58.77
56392;BME280;76123;53.584;9.978;2024-03-02T11:31:15;100551.13;;;13.32;59.33
56392;BME280;76123;53.584;9.978;2024-03-02T11:33:42;100553.66;;;13.20;59.29
56392;BME280;76123;53.584;9.978;2024-03-02T11:36:09;100557.09;;;13.35;59.39
56392;BME280;76123;53.584;9.978;2024-03-02T11:38:36;100553.59;;;13.35;59.59
56392;BME280;76123;53.584;9.978;2024-03-02T11:41:05;100561.09;;;13.28;59.95
56392;BME280;76123;53.584;9.978;2024-03-02T11:43:37;100553.44;;;13.24;59.89
56392;BME280;76123;53.584;9.978;2024-03-02T11:46:05;100554.06;;;13.14;60.14
56392;BME280;76123;53.584;9.978;2024-03-02T11:48:32;100557.91;;;13.23;60.07
56392;BME280;76123;53.584;9.978;2024-03-02T11:50:59;100548.31;;;13.20;60.47
56392;BME280;76123;53.584;9.978;2024-03-02T11:53:27;100540.69;;;13.29;59.02
56392;BME280;76123;53.584;9.978;2024-03-02T11:55:55;100545.75;;;13.06;59.66
56392;BME280;76123;53.584;9.978;2024-03-02T11:58:22;100547.53;;;13.06;59.85
56392;BME280;76123;53.584;9.978;2024-03-02T12:00:52;100557.03;;;12.95;60.00
56392;BME280;76123;53.584;9.978;2024-03-02T12:03:20;100556.00;;;12.98;60.03
56392;BME280;76123;53.584;9.978;2024-03-02T12:05:49;100554.66;;;13.05;59.42
56392;BME280;76123;53.584;9.978;2024-03-02T12:08:16;100547.72;;;13.02;59.92
56392;BME280;76123;53.584;9.978;2024-03-02T12:10:43;100550.91;;;12.95;59.46
56392;BME280;76123;53.584;9.978;2024-03-02T12:13:10;100549.22;;;12.79;59.62
56392;BME280;76123;53.584;9.978;2024-03-02T12:15:38;100549.44;;;12.76;60.59
56392;BME280;76123;53.584;9.978;2024-03-02T12:18:07;100546.31;;;12.69;59.50
56392;BME280;76123;53.584;9.978;2024-03-02T12:20:35;100535.28;;;12.90;59.78
56392;BME280;76123;53.584;9.978;2024-03-02T12:23:02;100530.28;;;12.98;58.56
56392;BME280;76123;53.584;9.978;2024-03-02T12:25:31;100536.56;;;12.97;58.59
56392;BME280;76123;53.584;9.978;2024-03-02T12:28:00;100535.13;;;13.06;58.52
56392;BME280;76123;53.584;9.978;2024-03-02T12:30:30;100532.00;;;12.99;58.45
56392;BME280;76123;53.584;9.978;2024-03-02T12:32:57;100532.03;;;13.12;59.15
56392;BME280;76123;53.584;9.978;2024-03-02T12:35:25;100527.06;;;13.20;58.34
56392;BME280;76123;53.584;9.978;2024-03-02T12:37:53;100522.47;;;13.10;58.19
56392;BME280;76123;53.584;9.978;2024-03-02T12:40:20;100526.41;;;13.17;57.99
56392;BME280;76123;53.584;9.978;2024-03-02T12:42:48;100523.72;;;13.04;58.50
56392;BME280;76123;53.584;9.978;2024-03-02T12:45:16;100527.03;;;13.08;57.71
56392;BME280;76123;53.584;9.978;2024-03-02T12:47:49;100518.63;;;13.01;58.11
56392;BME280;76123;53.584;9.978;2024-03-02T12:50:16;100524.97;;;12.98;58.46
56392;BME280;76123;53.584;9.978;2024-03-02T12:52:50;100524.25;;;12.96;57.79
56392;BME280;76123;53.584;9.978;2024-03-02T12:55:17;100524.19;;;13.11;58.54
56392;BME280;76123;53.584;9.978;2024-03-02T12:57:44;100518.88;;;13.11;58.63
56392;BME280;76123;53.584;9.978;2024-03-02T13:00:11;100516.13;;;13.25;58.75
56392;BME280;76123;53.584;9.978;2024-03-02T13:02:40;100521.53;;;13.11;58.08